Time;durP1;ratioP1;P1;durP2;ratioP2;P2;SDS_P1;SDS_P2;PMS_P1;PMS_P2;Temp;Humidity;BMP_temperature;BMP_pressure;BME280_temperature;BME280_humidity;BME280_pressure;Samples;Min_cycle;Max_cycle;Signal;HPM_P1;HPM_P2
2023/03/09 00:01:37;;;;;;;5.00;3.00;;;;;;;11.18;44.29;96976.16;10205052;28;20130;-55
2023/03/09 00:06:36;;;;;;;;;;;;;;;10.44;44.02;96870.84;10216210;28;20552;-55
2023/03/09 00:11:35;;;;;;;7.38;3.13;;;;;;;11.10;44.14;96976.28;10214538;28;20487;-55
2023/03/09 00:16:36;;;;;;;;;;;;;;;11.00;43.85;96972.97;10215487;28;20198;-55
2023/03/09 00:21:40;;;;;;;5.32;3.13;;;;;;;10.92;44.43;96961.84;10209578;28;20020;-55
2023/03/09 00:26:42;;;;;;;5.95;3.97;;;;;;;10.99;43.96;96971.25;10211012;28;20121;-55
2023/03/09 00:31:42;;;;;;;9.57;5.25;;;;;;;10.95;43.54;96961.81;10217344;28;20117;-55
2023/03/09 00:36:41;;;;;;;4.78;2.85;;;;;;;10.93;44.10;96950.56;10211449;28;20594;-55
2023/03/09 00:41:41;;;;;;;6.18;3.00;;;;;;;10.83;45.26;96946.38;10207749;28;20113;-55
2023/03/09 00:46:41;;;;;;;3.50;2.28;;;;;;;10.54;44.48;96926.91;10207208;28;20073;-55
2023/03/09 00:51:42;;;;;;;6.35;2.75;;;;;;;10.67;45.26;96935.38;10206580;28;20069;-55
2023/03/09 00:56:42;;;;;;;4.50;2.72;;;;;;;10.60;44.87;96916.44;10207076;28;20081;-55
2023/03/09 01:01:41;;;;;;;5.40;3.30;;;;;;;10.54;45.44;96907.88;10245952;28;20062;-55
2023/03/09 01:06:40;;;;;;;11.75;5.28;;;;;;;10.32;45.93;96922.91;10246837;28;20499;-55
2023/03/09 01:11:39;;;;;;;5.57;3.20;;;;;;;10.10;46.29;96923.19;10245745;28;20863;-55
2023/03/09 01:16:37;;;;;;;7.03;3.55;;;;;;;9.76;47.18;96923.56;10245378;28;20416;-55
2023/03/09 01:21:36;;;;;;;5.72;3.67;;;;;;;9.50;47.70;96933.34;10245880;28;20803;-55
2023/03/09 01:26:35;;;;;;;6.30;3.78;;;;;;;9.38;48.05;96930.88;10245476;28;20031;-55
2023/03/09 01:31:34;;;;;;;7.32;3.60;;;;;;;9.25;48.74;96910.22;10244934;28;20037;-55
2023/03/09 01:36:33;;;;;;;10.02;5.10;;;;;;;9.06;49.88;96906.09;10236411;28;20480;-55
2023/03/09 01:41:32;;;;;;;4.65;3.47;;;;;;;8.80;49.84;96916.66;10204621;28;20045;-55
2023/03/09 01:46:56;;;;;;;6.28;4.38;;;;;;;8.73;50.51;96895.16;10205770;28;20528;-55
2023/03/09 01:52:03;;;;;;;5.38;3.15;;;;;;;8.98;50.32;96888.06;10204678;28;20078;-55
2023/03/09 01:57:15;;;;;;;6.07;3.65;;;;;;;9.11;49.78;96892.28;10203399;28;20155;-55
2023/03/09 02:02:16;;;;;;;4.57;2.85;;;;;;;9.10;49.60;96879.34;10243825;28;20072;-55
2023/03/09 02:07:18;;;;;;;5.40;3.22;;;;;;;9.27;49.18;96864.47;10243909;28;20062;-55
2023/03/09 02:12:20;;;;;;;12.93;6.45;;;;;;;9.30;49.29;96890.41;10244285;28;20078;-55
2023/03/09 02:17:19;;;;;;;4.45;3.10;;;;;;;9.32;49.37;96887.78;10243132;28;20093;-55
2023/03/09 02:22:18;;;;;;;5.47;3.10;;;;;;;9.20;49.06;96872.34;10243967;28;20088;-55
2023/03/09 02:27:20;;;;;;;;;;;;;;;9.22;49.42;96878.34;10243495;28;20065;-55
2023/03/09 02:32:19;;;;;;;3.55;2.47;;;;;;;9.17;49.40;96886.16;10243276;28;19957;-55
2023/03/09 02:37:29;;;;;;;4.93;2.65;;;;;;;9.20;49.52;96896.47;10228039;28;20062;-55
2023/03/09 02:42:28;;;;;;;9.48;3.33;;;;;;;9.13;49.76;96890.50;10202475;28;20512;-55
2023/03/09 02:47:27;;;;;;;8.23;4.15;;;;;;;9.08;50.05;96900.03;10202406;28;20054;-55
2023/03/09 02:52:26;;;;;;;6.45;3.65;;;;;;;8.90;50.39;96885.56;10202048;28;20034;-55
2023/03/09 02:57:25;;;;;;;10.77;5.60;;;;;;;8.95;50.54;96908.81;10201981;28;20034;-55
2023/03/09 03:02:24;;;;;;;7.78;4.15;;;;;;;8.42;52.37;96904.88;10201937;28;20504;-55
2023/03/09 03:07:23;;;;;;;10.27;5.10;;;;;;;8.46;51.80;96901.41;10200345;28;20062;-55
2023/03/09 03:12:22;;;;;;;8.20;4.80;;;;;;;8.35;52.89;96883.34;10201630;28;20137;-56
2023/03/09 03:17:21;;;;;;;8.40;5.10;;;;;;;8.22;52.58;96871.38;10240685;28;20498;-55
2023/03/09 03:22:21;;;;;;;7.53;4.78;;;;;;;8.09;53.59;96879.19;10240811;28;20452;-55
2023/03/09 03:27:20;;;;;;;14.68;8.57;;;;;;;7.91;53.70;96879.28;10241746;28;20066;-55
2023/03/09 03:32:18;;;;;;;9.85;5.30;;;;;;;7.75;53.49;96865.56;10240498;28;20126;-55
2023/03/09 03:37:17;;;;;;;8.55;3.80;;;;;;;7.95;53.79;96883.56;10226911;28;20122;-55
2023/03/09 03:42:16;;;;;;;6.70;3.72;;;;;;;7.89;54.08;96886.19;10200745;28;20547;-55
2023/03/09 03:47:16;;;;;;;8.93;4.82;;;;;;;7.87;53.97;96885.31;10200340;28;20417;-54
2023/03/09 03:52:15;;;;;;;7.43;4.28;;;;;;;8.02;53.63;96894.75;10200925;28;20070;-53
2023/03/09 03:57:14;;;;;;;7.63;4.32;;;;;;;8.05;53.56;96890.41;10200450;28;20034;-53
2023/03/09 04:02:12;;;;;;;7.85;3.83;;;;;;;8.07;53.98;96878.34;10204215;28;20404;-55
2023/03/09 04:07:11;;;;;;;9.23;5.22;;;;;;;8.09;53.75;96862.84;10240112;28;20065;-53
2023/03/09 04:12:10;;;;;;;7.93;4.50;;;;;;;8.09;53.33;96843.03;10239437;28;20129;-54
2023/03/09 04:17:09;;;;;;;9.45;5.28;;;;;;;8.02;54.03;96836.19;10239663;28;20037;-54
2023/03/09 04:22:09;;;;;;;13.50;7.80;;;;;;;7.82;54.49;96846.59;10248438;28;20171;-54
2023/03/09 04:27:08;;;;;;;13.63;6.35;;;;;;;7.50;55.69;96836.44;10246903;28;20066;-54
2023/03/09 04:32:07;;;;;;;11.40;6.80;;;;;;;7.66;55.34;96845.84;10247216;28;20062;-54
2023/03/09 04:37:06;;;;;;;12.55;5.85;;;;;;;7.50;55.46;96828.69;10233063;28;20121;-54
2023/03/09 04:42:05;;;;;;;10.95;5.20;;;;;;;7.51;55.49;96851.03;10207219;28;20070;-53
2023/03/09 04:47:06;;;;;;;10.63;5.63;;;;;;;7.65;55.43;96838.94;10206637;28;20081;-54
2023/03/09 04:52:05;;;;;;;12.07;6.20;;;;;;;7.77;54.97;96829.41;10206869;28;20054;-54
2023/03/09 04:57:04;;;;;;;11.75;5.85;;;;;;;7.75;55.74;96823.41;10205260;28;20544;-54
2023/03/09 05:02:03;;;;;;;10.85;5.63;;;;;;;7.75;55.51;96824.25;10205660;28;20138;-54
2023/03/09 05:07:02;;;;;;;12.90;8.15;;;;;;;7.75;56.19;96819.09;10206886;28;20049;-54
2023/03/09 05:12:01;;;;;;;17.50;8.32;;;;;;;7.82;55.98;96822.50;10205395;28;20063;-54
2023/03/09 05:17:00;;;;;;;18.02;9.23;;;;;;;7.85;56.53;96820.78;10204252;28;20043;-54
2023/03/09 05:21:59;;;;;;;16.70;9.27;;;;;;;7.94;55.66;96819.00;10205340;28;20046;-54
2023/03/09 05:26:58;;;;;;;11.80;6.07;;;;;;;6.96;56.32;96663.72;10204556;28;20030;-54
2023/03/09 05:31:57;;;;;;;11.90;6.80;;;;;;;8.00;55.34;96800.88;10202664;28;20038;-54
2023/03/09 05:36:56;;;;;;;12.30;4.68;;;;;;;8.26;55.18;96829.13;10265843;28;20053;-54
2023/03/09 05:41:55;;;;;;;15.68;8.10;;;;;;;8.53;54.79;96846.19;10284574;28;20054;-54
2023/03/09 05:46:54;;;;;;;10.18;6.40;;;;;;;8.78;54.61;96853.72;10273773;28;20230;-54
2023/03/09 05:51:54;;;;;;;17.25;6.40;;;;;;;8.95;54.05;96849.28;10256629;28;20469;-54
2023/03/09 05:56:54;;;;;;;10.38;6.97;;;;;;;9.34;53.41;96853.22;10283657;28;20500;-54
2023/03/09 06:01:53;;;;;;;9.98;6.45;;;;;;;9.67;52.96;96843.34;10283513;28;20066;-54
2023/03/09 06:06:52;;;;;;;12.30;8.02;;;;;;;10.01;52.32;96852.47;10260815;28;20022;-54
2023/03/09 06:11:51;;;;;;;15.68;9.25;;;;;;;10.41;51.48;96865.72;10247760;28;20061;-54
2023/03/09 06:16:50;;;;;;;26.10;13.82;;;;;;;10.87;50.58;96854.66;10243524;28;20064;-54
2023/03/09 06:21:49;;;;;;;24.10;12.20;;;;;;;11.52;49.22;96861.28;10244520;28;20121;-54
2023/03/09 06:26:48;;;;;;;16.33;11.23;;;;;;;11.91;48.69;96853.59;10243383;28;20126;-54
2023/03/09 06:31:46;;;;;;;13.70;9.00;;;;;;;11.54;48.06;96745.19;10246597;28;20034;-54
2023/03/09 06:36:46;;;;;;;15.18;7.90;;;;;;;12.54;47.49;96847.03;10269575;28;20044;-54
2023/03/09 06:41:45;;;;;;;11.13;6.57;;;;;;;12.71;45.06;96845.72;10259734;28;20126;-55
2023/03/09 06:46:44;;;;;;;11.00;5.82;;;;;;;13.29;44.47;96834.75;10266977;28;20126;-54
2023/03/09 06:51:44;;;;;;;;;;;;;;;13.66;43.09;96825.97;10246558;28;20354;-54
2023/03/09 06:56:42;;;;;;;7.90;3.77;;;;;;;13.71;41.98;96803.22;10252065;28;19948;-55
2023/03/09 07:01:41;;;;;;;;;;;;;;;14.37;40.85;96845.59;10268413;28;20105;-55
2023/03/09 07:06:40;;;;;;;8.13;2.97;;;;;;;14.34;39.73;96811.75;10241327;28;19940;-55
2023/03/09 07:11:39;;;;;;;;;;;;;;;14.62;39.03;96830.88;10243529;28;20034;-56
2023/03/09 07:16:39;;;;;;;7.13;2.22;;;;;;;14.74;39.31;96826.19;10240151;28;19914;-55
2023/03/09 07:21:38;;;;;;;4.30;2.08;;;;;;;15.17;38.45;96854.34;10247416;28;20582;-55
2023/03/09 07:26:38;;;;;;;;;;;;;;;15.44;38.68;96859.56;10242161;28;20516;-55
2023/03/09 07:31:43;;;;;;;;;;;;;;;15.36;37.62;96856.34;10248317;28;20391;-55
2023/03/09 07:36:42;;;;;;;20.65;19.00;;;;;;;15.61;37.52;96853.72;10253191;28;20160;-56
2023/03/09 07:41:41;;;;;;;5.28;2.90;;;;;;;15.67;36.80;96859.59;10253111;28;20471;-56
2023/03/09 07:46:40;;;;;;;5.75;2.03;;;;;;;15.62;37.06;96860.66;10252714;28;20066;-56
2023/03/09 07:51:39;;;;;;;;;;;;;;;15.56;36.70;96873.97;10247499;28;20018;-56
2023/03/09 07:56:38;;;;;;;4.60;2.20;;;;;;;15.58;36.68;96869.53;10250504;28;19929;-56
2023/03/09 08:01:37;;;;;;;3.25;2.17;;;;;;;15.42;37.16;96869.22;10253223;28;20038;-55
2023/03/09 08:06:37;;;;;;;;;;;;;;;15.35;37.04;96889.47;10251143;28;21598;-56
2023/03/09 08:11:35;;;;;;;5.25;2.33;;;;;;;15.34;37.37;96871.22;10258737;28;19961;-56
2023/03/09 08:16:34;;;;;;;;;;;;;;;15.39;37.00;96874.56;10254267;28;20085;-56
2023/03/09 08:21:33;;;;;;;3.58;1.80;;;;;;;15.66;36.43;96868.34;10258385;28;19917;-56
2023/03/09 08:26:32;;;;;;;;;;;;;;;15.54;36.31;96863.53;10253971;28;20026;-56
2023/03/09 08:31:31;;;;;;;8.13;5.70;;;;;;;15.93;36.44;96860.44;10253352;28;20012;-56
2023/03/09 08:36:31;;;;;;;4.80;2.72;;;;;;;16.25;35.59;96871.47;10254623;28;20054;-56
2023/03/09 08:41:29;;;;;;;3.17;2.00;;;;;;;16.80;35.57;96858.84;10265052;28;20560;-56
2023/03/09 08:46:29;;;;;;;7.90;3.50;;;;;;;16.90;35.02;96839.22;10251824;28;20536;-56
2023/03/09 08:51:28;;;;;;;2.33;1.73;;;;;;;17.03;35.35;96834.34;10253048;28;20062;-56
2023/03/09 08:56:27;;;;;;;6.38;1.70;;;;;;;17.52;35.36;96848.00;10257092;28;20072;-55
2023/03/09 09:01:26;;;;;;;2.80;1.90;;;;;;;17.80;34.32;96856.44;10263725;28;20030;-55
2023/03/09 09:06:25;;;;;;;4.57;1.80;;;;;;;17.72;33.77;96833.16;10254240;28;20026;-55
2023/03/09 09:11:24;;;;;;;3.88;1.83;;;;;;;17.56;34.43;96846.94;10281853;28;20057;-55
2023/03/09 09:16:23;;;;;;;1.73;1.40;;;;;;;17.66;34.78;96833.41;10255835;28;20092;-55
2023/03/09 09:21:23;;;;;;;7.30;3.60;;;;;;;17.64;34.37;96798.53;10264651;28;20048;-55
2023/03/09 09:26:22;;;;;;;31.77;4.47;;;;;;;17.78;34.99;96769.94;10256574;28;20077;-55
2023/03/09 09:31:23;;;;;;;3.83;2.00;;;;;;;17.64;34.29;96785.44;10260411;28;20066;-55
2023/03/09 09:36:21;;;;;;;3.10;1.85;;;;;;;17.43;34.23;96806.44;10255949;28;20057;-55
2023/03/09 09:41:44;;;;;;;4.75;2.53;;;;;;;17.15;36.04;96801.53;10264357;28;20026;-55
2023/03/09 09:46:44;;;;;;;6.80;1.85;;;;;;;17.34;35.20;96789.31;10254731;28;20057;-55
2023/03/09 09:52:11;;;;;;;6.22;2.88;;;;;;;17.44;35.60;96786.31;10277897;28;20053;-55
2023/03/09 09:57:17;;;;;;;3.58;1.80;;;;;;;17.43;34.76;96777.59;10256770;28;20049;-55
2023/03/09 10:02:48;;;;;;;3.42;1.65;;;;;;;17.64;34.32;96782.81;10262727;28;20061;-55
2023/03/09 10:07:48;;;;;;;22.60;11.25;;;;;;;17.47;34.72;96773.91;10255453;28;20162;-55
2023/03/09 10:12:47;;;;;;;3.05;1.45;;;;;;;17.20;34.42;96762.00;10246706;28;20066;-55
2023/03/09 10:18:01;;;;;;;2.58;1.80;;;;;;;17.41;34.38;96752.34;10256522;28;20093;-55
2023/03/09 10:23:15;;;;;;;4.80;1.55;;;;;;;17.62;34.52;96746.13;10260481;28;20121;-55
2023/03/09 10:28:18;;;;;;;3.60;1.70;;;;;;;17.03;34.19;96647.41;10261149;28;20109;-55
2023/03/09 10:33:32;;;;;;;2.50;1.70;;;;;;;17.22;34.55;96733.97;10256162;28;20516;-55
2023/03/09 10:38:32;;;;;;;3.42;1.90;;;;;;;17.21;34.80;96716.50;10261007;28;20069;-55
2023/03/09 10:43:36;;;;;;;2.45;1.70;;;;;;;17.26;35.05;96711.91;10261324;28;20122;-55
2023/03/09 10:48:35;;;;;;;3.67;2.30;;;;;;;16.98;35.15;96657.22;10269753;28;20071;-55
2023/03/09 10:53:44;;;;;;;2.60;1.90;;;;;;;17.45;34.96;96698.81;10267809;28;20038;-55
2023/03/09 10:58:43;;;;;;;3.45;2.10;;;;;;;17.51;35.09;96682.81;10258757;28;20478;-55
2023/03/09 11:03:43;;;;;;;6.53;3.13;;;;;;;17.48;34.97;96682.97;10244336;28;20066;-55
2023/03/09 11:08:44;;;;;;;7.68;3.05;;;;;;;17.79;34.70;96671.06;10259652;28;20076;-55
2023/03/09 11:13:46;;;;;;;5.03;2.40;;;;;;;18.07;35.42;96653.06;10251578;28;20078;-55
2023/03/09 11:18:45;;;;;;;5.53;2.17;;;;;;;18.54;34.48;96654.25;10260573;28;20065;-56
2023/03/09 11:23:47;;;;;;;7.90;2.70;;;;;;;18.71;33.49;96640.28;10243918;28;20050;-56
2023/03/09 11:28:58;;;;;;;6.75;2.38;;;;;;;18.82;34.47;96643.22;10256836;28;20061;-56
2023/03/09 11:33:58;;;;;;;6.15;2.03;;;;;;;19.08;33.33;96646.28;10253858;28;20061;-56
2023/03/09 11:39:03;;;;;;;3.92;2.08;;;;;;;19.11;33.01;96646.09;10256686;28;20129;-56
2023/03/09 11:44:08;;;;;;;3.90;2.03;;;;;;;19.43;32.72;96631.22;10245748;28;20058;-56
2023/03/09 11:49:14;;;;;;;8.65;2.58;;;;;;;19.71;33.77;96596.38;10258208;28;20077;-56
2023/03/09 11:54:24;;;;;;;9.15;2.55;;;;;;;20.29;32.05;96600.09;10247558;28;20532;-56
2023/03/09 11:59:29;;;;;;;3.13;2.40;;;;;;;20.41;32.76;96593.28;10254459;28;20804;-56
2023/03/09 12:04:28;;;;;;;6.60;2.30;;;;;;;20.60;32.77;96585.97;10246184;28;20125;-56
2023/03/09 12:10:04;;;;;;;4.68;2.35;;;;;;;20.78;32.54;96584.03;10260193;28;20202;-56
2023/03/09 12:15:34;;;;;;;5.22;2.67;;;;;;;20.52;31.73;96572.41;10254359;28;20073;-56
2023/03/09 12:20:40;;;;;;;3.17;1.95;;;;;;;20.63;32.35;96532.22;10251123;28;20069;-56
2023/03/09 12:25:57;;;;;;;8.02;2.00;;;;;;;20.70;32.67;96544.06;10249363;28;20078;-56
2023/03/09 12:30:57;;;;;;;4.00;2.47;;;;;;;20.88;31.92;96536.84;10224585;28;20147;-56
2023/03/09 12:35:57;;;;;;;7.00;2.38;;;;;;;20.66;32.36;96469.63;10255044;28;20109;-56
2023/03/09 12:40:58;;;;;;;3.45;2.03;;;;;;;21.00;32.04;96525.53;10256208;28;20141;-56
2023/03/09 12:46:37;;;;;;;3.08;2.00;;;;;;;21.06;31.42;96522.50;10260802;28;20133;-56
2023/03/09 12:51:39;;;;;;;5.68;2.05;;;;;;;20.60;31.84;96495.50;10263568;28;20065;-56
2023/03/09 12:56:38;;;;;;;6.43;1.90;;;;;;;20.48;32.37;96505.00;10263389;28;20137;-56
2023/03/09 13:01:37;;;;;;;15.73;2.83;;;;;;;19.89;32.71;96433.88;10254518;28;20050;-56
2023/03/09 13:06:39;;;;;;;6.35;2.40;;;;;;;20.32;32.55;96512.13;10248876;28;20149;-56
2023/03/09 13:11:56;;;;;;;5.50;2.47;;;;;;;20.29;32.19;96497.34;10252943;28;20125;-56
2023/03/09 13:16:57;;;;;;;3.95;2.33;;;;;;;20.44;32.40;96508.75;10257918;28;20054;-56
2023/03/09 13:21:56;;;;;;;3.70;2.15;;;;;;;20.55;31.55;96506.34;10252147;28;20560;-58
2023/03/09 13:27:16;;;;;;;5.95;2.10;;;;;;;20.46;31.99;96489.28;10257326;28;20505;-57
2023/03/09 13:32:23;;;;;;;4.05;1.90;;;;;;;20.28;32.30;96495.63;10251475;28;20060;-57
2023/03/09 13:37:25;;;;;;;4.55;1.80;;;;;;;20.18;32.01;96489.22;10255599;28;20054;-57
2023/03/09 13:42:25;;;;;;;3.08;1.63;;;;;;;20.04;31.99;96492.69;10246114;28;20487;-55
2023/03/09 13:47:27;;;;;;;4.32;2.20;;;;;;;20.26;32.16;96487.84;10253595;28;20121;-56
2023/03/09 13:52:27;;;;;;;6.03;2.97;;;;;;;20.38;31.70;96480.97;10247585;28;20070;-55
2023/03/09 13:57:34;;;;;;;5.15;2.75;;;;;;;20.73;31.80;96485.91;10252409;28;20102;-55
2023/03/09 14:02:33;;;;;;;7.88;3.10;;;;;;;20.92;31.87;96481.19;10247627;28;20137;-56
2023/03/09 14:07:42;;;;;;;8.18;3.80;;;;;;;20.96;30.70;96484.47;10255055;28;20122;-57
2023/03/09 14:12:41;;;;;;;5.20;2.65;;;;;;;20.82;31.37;96489.75;10245838;28;20532;-57
2023/03/09 14:17:41;;;;;;;6.65;2.80;;;;;;;20.78;31.88;96491.75;10254565;28;20074;-57
2023/03/09 14:22:40;;;;;;;6.15;2.53;;;;;;;20.66;32.15;96489.88;10244202;28;20152;-56
2023/03/09 14:27:39;;;;;;;4.80;1.65;;;;;;;20.52;31.97;96472.28;10242425;28;20030;-57
2023/03/09 14:33:03;;;;;;;16.77;3.53;;;;;;;20.49;32.07;96504.06;10243307;28;20465;-56
2023/03/09 14:38:16;;;;;;;5.15;2.00;;;;;;;20.39;32.35;96497.63;10242177;28;20507;-56
2023/03/09 14:43:30;;;;;;;4.47;2.30;;;;;;;20.26;32.54;96494.91;10242379;28;20157;-56
2023/03/09 14:48:29;;;;;;;3.38;1.88;;;;;;;20.11;32.59;96494.00;10249652;28;20065;-56
2023/03/09 14:53:28;;;;;;;3.17;2.10;;;;;;;20.06;32.84;96493.44;10245054;28;20036;-56
2023/03/09 14:58:27;;;;;;;5.00;2.08;;;;;;;19.83;32.58;96464.03;10251937;28;20528;-56
2023/03/09 15:03:26;;;;;;;6.68;2.25;;;;;;;19.83;32.90;96469.31;10243013;28;20614;-57
2023/03/09 15:08:25;;;;;;;6.95;2.83;;;;;;;19.80;32.83;96481.81;10250553;28;20773;-56
2023/03/09 15:13:24;;;;;;;8.82;2.38;;;;;;;19.67;33.10;96484.28;10243005;28;20944;-56
2023/03/09 15:18:23;;;;;;;5.40;2.55;;;;;;;19.67;33.08;96494.81;10251609;28;20472;-56
2023/03/09 15:23:22;;;;;;;7.05;2.38;;;;;;;19.60;33.38;96489.09;10240899;28;20492;-56
2023/03/09 15:28:21;;;;;;;16.60;3.95;;;;;;;19.34;33.30;96471.25;10251173;28;20046;-56
2023/03/09 15:33:20;;;;;;;9.57;3.25;;;;;;;19.42;33.36;96495.38;10244442;28;20583;-56
2023/03/09 15:38:19;;;;;;;8.73;2.88;;;;;;;19.27;33.58;96498.84;10251760;28;20102;-56
2023/03/09 15:43:18;;;;;;;6.13;3.00;;;;;;;19.08;33.87;96462.22;10242625;28;20022;-58
2023/03/09 15:48:17;;;;;;;7.85;3.78;;;;;;;19.02;34.08;96487.91;10250180;28;20168;-57
2023/03/09 15:53:16;;;;;;;4.63;2.97;;;;;;;19.00;33.73;96523.97;10241630;28;20407;-57
2023/03/09 15:58:15;;;;;;;5.30;2.30;;;;;;;18.82;34.51;96530.19;10254313;28;20606;-54
2023/03/09 16:03:14;;;;;;;4.13;1.90;;;;;;;18.76;35.29;96528.78;10242943;28;20054;-55
2023/03/09 16:08:13;;;;;;;3.13;1.80;;;;;;;18.42;35.70;96540.16;10245012;28;20037;-54
2023/03/09 16:13:15;;;;;;;3.78;2.00;;;;;;;18.33;35.75;96540.63;10242189;28;20046;-56
2023/03/09 16:18:15;;;;;;;6.65;2.75;;;;;;;18.25;36.15;96545.44;10257802;28;20126;-56
2023/03/09 16:23:15;;;;;;;7.32;2.88;;;;;;;18.41;35.73;96556.84;10252108;28;20070;-55
2023/03/09 16:28:14;;;;;;;3.83;2.20;;;;;;;18.27;36.10;96559.31;10258121;28;20085;-55
2023/03/09 16:33:13;;;;;;;5.35;2.70;;;;;;;18.23;36.52;96576.19;10255240;28;20518;-55
2023/03/09 16:38:14;;;;;;;8.38;3.75;;;;;;;18.22;36.71;96590.22;10263721;28;20128;-55
2023/03/09 16:43:13;;;;;;;5.75;3.67;;;;;;;18.12;36.64;96600.34;10254171;28;20100;-55
2023/03/09 16:48:11;;;;;;;11.45;5.25;;;;;;;18.11;37.08;96614.41;10256784;28;20385;-55
2023/03/09 16:53:10;;;;;;;22.10;7.55;;;;;;;18.02;37.34;96620.94;10248784;28;20141;-56
2023/03/09 16:58:09;;;;;;;8.40;4.97;;;;;;;17.98;37.64;96624.63;10260995;28;20108;-55
2023/03/09 17:03:08;;;;;;;8.13;4.10;;;;;;;17.74;38.00;96608.28;10254616;28;20136;-56
2023/03/09 17:08:07;;;;;;;8.35;6.07;;;;;;;17.81;38.33;96629.88;10247434;28;20050;-56
2023/03/09 17:13:07;;;;;;;7.18;4.22;;;;;;;17.67;38.44;96620.00;10264466;28;20571;-55
2023/03/09 17:18:06;;;;;;;10.18;5.60;;;;;;;17.73;38.51;96638.03;10256729;28;20065;-55
2023/03/09 17:23:05;;;;;;;19.98;15.00;;;;;;;17.44;38.88;96613.19;10254654;28;20180;-55
2023/03/09 17:28:04;;;;;;;8.40;5.63;;;;;;;17.54;39.06;96630.19;10256752;28;20128;-56
2023/03/09 17:33:03;;;;;;;13.45;4.13;;;;;;;17.51;39.12;96628.56;10256585;28;20037;-56
2023/03/09 17:38:02;;;;;;;9.10;5.80;;;;;;;17.40;39.22;96622.97;10258111;28;20069;-55
2023/03/09 17:43:01;;;;;;;7.45;3.20;;;;;;;17.34;40.10;96629.38;10248945;28;20038;-55
2023/03/09 17:48:01;;;;;;;5.78;3.28;;;;;;;17.12;39.93;96631.25;10255017;28;20038;-56
2023/03/09 17:53:00;;;;;;;5.55;3.38;;;;;;;16.92;40.10;96638.25;10253311;28;20466;-55
2023/03/09 17:57:59;;;;;;;3.47;2.60;;;;;;;17.05;39.84;96653.41;10251672;28;20117;-56
2023/03/09 18:02:58;;;;;;;6.25;3.40;;;;;;;17.10;39.80;96640.97;10255556;28;20611;-55
2023/03/09 18:07:57;;;;;;;4.18;2.35;;;;;;;17.08;39.57;96643.66;10252511;28;20824;-56
2023/03/09 18:12:57;;;;;;;3.78;2.83;;;;;;;17.17;39.73;96666.00;10245932;28;20138;-56
2023/03/09 18:17:57;;;;;;;4.20;2.30;;;;;;;17.14;40.25;96671.34;10252844;28;20155;-55
2023/03/09 18:22:56;;;;;;;3.88;1.85;;;;;;;16.95;40.57;96652.97;10244191;28;20125;-55
2023/03/09 18:27:55;;;;;;;6.78;3.25;;;;;;;17.05;40.64;96685.75;10243303;28;20144;-55
2023/03/09 18:32:55;;;;;;;3.90;2.65;;;;;;;17.11;41.52;96695.94;10251935;28;20149;-55
2023/03/09 18:37:54;;;;;;;7.95;3.40;;;;;;;16.87;42.04;96705.72;10247941;28;20113;-55
2023/03/09 18:42:53;;;;;;;3.90;2.60;;;;;;;17.01;41.94;96709.53;10244631;28;20133;-55
2023/03/09 18:47:52;;;;;;;5.97;2.90;;;;;;;17.04;41.82;96719.88;10252075;28;20145;-55
2023/03/09 18:52:52;;;;;;;27.38;15.32;;;;;;;17.01;42.14;96736.59;10243219;28;20030;-55
2023/03/09 18:57:52;;;;;;;10.18;4.85;;;;;;;17.02;42.55;96732.19;10255449;28;20536;-56
2023/03/09 19:02:51;;;;;;;13.50;8.13;;;;;;;16.98;42.63;96728.88;10243359;28;20122;-56
2023/03/09 19:07:50;;;;;;;12.27;5.63;;;;;;;16.63;43.92;96691.88;10241339;28;21375;-55
2023/03/09 19:12:51;;;;;;;8.23;3.58;;;;;;;16.67;44.00;96721.41;10242823;28;20073;-55
2023/03/09 19:17:50;;;;;;;5.75;3.85;;;;;;;16.44;44.06;96738.06;10251844;28;20508;-55
2023/03/09 19:22:49;;;;;;;4.78;2.40;;;;;;;16.29;44.44;96737.78;10242079;28;20492;-55
2023/03/09 19:27:51;;;;;;;5.03;2.35;;;;;;;16.27;44.07;96749.22;10241309;28;20578;-55
2023/03/09 19:32:50;;;;;;;3.65;2.28;;;;;;;16.25;44.42;96751.03;10241995;28;20122;-55
2023/03/09 19:37:52;;;;;;;4.18;2.30;;;;;;;16.26;44.97;96752.75;10243155;28;20042;-55
2023/03/09 19:42:51;;;;;;;5.38;2.90;;;;;;;16.19;44.83;96754.78;10241667;28;20070;-55
2023/03/09 19:47:50;;;;;;;3.72;2.25;;;;;;;16.15;45.01;96755.78;10248736;28;20030;-55
2023/03/09 19:52:49;;;;;;;2.35;1.73;;;;;;;16.20;45.19;96750.38;10241858;28;20038;-56
2023/03/09 19:57:48;;;;;;;3.00;2.10;;;;;;;15.98;45.16;96727.69;10249755;28;20030;-56
2023/03/09 20:02:49;;;;;;;;;;;;;;;16.12;44.99;96765.53;10241165;28;20046;-56
2023/03/09 20:07:48;;;;;;;5.13;2.80;;;;;;;16.05;44.60;96791.09;10250293;28;19953;-56
2023/03/09 20:12:49;;;;;;;4.40;2.22;;;;;;;15.97;44.89;96796.59;10241767;28;20042;-56
2023/03/09 20:17:48;;;;;;;4.65;2.45;;;;;;;16.05;44.75;96807.66;10249904;28;20467;-55
2023/03/09 20:22:47;;;;;;;4.78;2.83;;;;;;;15.96;45.01;96815.84;10243406;28;20615;-56
2023/03/09 20:27:46;;;;;;;4.90;2.88;;;;;;;15.95;45.58;96824.63;10241322;28;20109;-56
2023/03/09 20:32:44;;;;;;;;;;;;;;;15.88;45.71;96834.44;10243192;28;20121;-56
2023/03/09 20:37:43;;;;;;;7.93;3.33;;;;;;;15.33;48.55;96861.69;10247339;28;19956;-56
2023/03/09 20:42:42;;;;;;;;;;;;;;;15.01;50.91;96863.59;10243023;28;20031;-56
2023/03/09 20:47:41;;;;;;;8.07;3.73;;;;;;;14.55;53.23;96880.72;10248465;28;19917;-56
2023/03/09 20:52:46;;;;;;;7.80;4.63;;;;;;;14.11;55.66;96885.53;10240972;28;20054;-55
2023/03/09 20:57:46;;;;;;;8.05;4.75;;;;;;;13.69;57.83;96889.28;10241402;28;20068;-56
2023/03/09 21:02:45;;;;;;;10.02;5.38;;;;;;;13.55;59.50;96927.91;10249203;28;20141;-55
2023/03/09 21:07:44;;;;;;;;;;;;;;;13.19;62.25;96934.84;10255785;28;20053;-55
2023/03/09 21:12:43;;;;;;;27.33;17.08;;;;;;;13.08;62.77;96938.59;10247126;28;20029;-55
2023/03/09 21:17:41;;;;;;;;;;;;;;;13.01;63.53;96942.22;10255791;28;20050;-55
2023/03/09 21:22:40;;;;;;;8.77;4.05;;;;;;;13.10;62.41;96946.38;10251265;28;19979;-55
2023/03/09 21:27:40;;;;;;;8.18;3.63;;;;;;;13.18;62.30;96954.00;10195792;28;20042;-55
2023/03/09 21:32:39;;;;;;;12.48;6.75;;;;;;;13.06;61.82;96935.16;10204835;28;20077;-56
2023/03/09 21:37:37;;;;;;;;;;;;;;;13.10;63.00;96973.28;10218390;28;20109;-56
2023/03/09 21:42:36;;;;;;;7.53;4.63;;;;;;;12.85;65.22;96972.97;10206974;28;19926;-56
2023/03/09 21:47:35;;;;;;;;;;;;;;;12.69;66.41;96982.00;10215402;28;20525;-53
2023/03/09 21:52:34;;;;;;;13.20;9.27;;;;;;;12.73;64.96;96970.66;10205649;28;19916;-53
2023/03/09 21:57:33;;;;;;;;;;;;;;;12.97;64.09;96979.66;10214749;28;20504;-55
2023/03/09 22:02:32;;;;;;;13.27;7.22;;;;;;;12.78;63.91;96954.94;10206048;28;20392;-54
2023/03/09 22:07:31;;;;;;;9.98;5.18;;;;;;;12.97;64.29;96986.63;10213009;28;20073;-54
2023/03/09 22:12:30;;;;;;;;;;;;;;;12.97;63.83;96987.47;10204616;28;20039;-55
2023/03/09 22:17:30;;;;;;;9.65;4.53;;;;;;;12.98;63.97;96994.41;10205036;28;19988;-55
2023/03/09 22:22:29;;;;;;;8.80;4.55;;;;;;;12.95;63.86;96989.25;10204194;28;20138;-55
2023/03/09 22:27:29;;;;;;;10.48;5.32;;;;;;;12.88;64.54;96992.88;10212277;28;20030;-55
2023/03/09 22:32:28;;;;;;;14.52;6.85;;;;;;;12.80;65.35;96984.41;10204101;28;20200;-55
2023/03/09 22:37:27;;;;;;;;;;;;;;;12.81;65.49;96991.31;10212232;28;20420;-55
2023/03/09 22:42:27;;;;;;;12.30;6.70;;;;;;;12.78;65.58;96994.84;10202797;28;20454;-55
2023/03/09 22:47:28;;;;;;;9.77;5.40;;;;;;;12.60;65.68;96957.06;10212105;28;20491;-55
2023/03/09 22:52:27;;;;;;;11.25;5.07;;;;;;;12.68;65.49;96981.16;10212938;28;20072;-55
2023/03/09 22:57:30;;;;;;;8.95;4.75;;;;;;;12.49;66.76;96982.47;10214554;28;20126;-55
2023/03/09 23:02:30;;;;;;;12.60;4.82;;;;;;;12.42;67.25;96986.06;10202009;28;20121;-55
2023/03/09 23:07:29;;;;;;;11.82;7.25;;;;;;;12.23;67.44;96967.34;10206666;28;20150;-55
2023/03/09 23:12:28;;;;;;;;;;;;;;;12.21;67.22;96954.38;10206525;28;20038;-55
2023/03/09 23:17:27;;;;;;;13.18;6.82;;;;;;;12.14;67.32;96958.00;10207536;28;19941;-55
2023/03/09 23:22:26;;;;;;;13.77;5.70;;;;;;;11.98;68.36;96954.81;10196398;28;20039;-55
2023/03/09 23:27:25;;;;;;;11.23;7.00;;;;;;;11.76;68.80;96958.69;10202154;28;20776;-54